sensor_id;sensor_type;location;lat;lon;timestamp;temperature;humidity
336;DHT22;156;48.738;9.228;2022-09-09T00:00:23;15.00;82.10
336;DHT22;156;48.738;9.228;2022-09-09T00:02:57;15.00;80.70
336;DHT22;156;48.738;9.228;2022-09-09T00:05:31;15.00;81.10
336;DHT22;156;48.738;9.228;2022-09-09T00:08:03;15.00;79.40
336;DHT22;156;48.738;9.228;2022-09-09T00:10:34;15.00;76.90
336;DHT22;156;48.738;9.228;2022-09-09T00:13:13;15.00;73.10
336;DHT22;156;48.738;9.228;2022-09-09T00:15:52;15.10;72.50
336;DHT22;156;48.738;9.228;2022-09-09T00:18:25;15.10;71.90
336;DHT22;156;48.738;9.228;2022-09-09T00:20:58;15.10;72.70
336;DHT22;156;48.738;9.228;2022-09-09T00:23:33;15.10;72.60
336;DHT22;156;48.738;9.228;2022-09-09T00:26:05;15.10;72.50
336;DHT22;156;48.738;9.228;2022-09-09T00:28:38;15.20;69.10
336;DHT22;156;48.738;9.228;2022-09-09T00:31:12;15.20;69.60
336;DHT22;156;48.738;9.228;2022-09-09T00:33:39;15.20;69.40
336;DHT22;156;48.738;9.228;2022-09-09T00:36:13;15.20;67.80
336;DHT22;156;48.738;9.228;2022-09-09T00:38:45;15.30;67.20
336;DHT22;156;48.738;9.228;2022-09-09T00:41:20;15.30;64.80
336;DHT22;156;48.738;9.228;2022-09-09T00:43:55;15.40;61.70
336;DHT22;156;48.738;9.228;2022-09-09T00:46:44;15.40;59.70
336;DHT22;156;48.738;9.228;2022-09-09T00:49:21;15.50;55.10
336;DHT22;156;48.738;9.228;2022-09-09T00:51:59;15.50;55.20
336;DHT22;156;48.738;9.228;2022-09-09T00:54:44;15.50;53.80
336;DHT22;156;48.738;9.228;2022-09-09T00:57:23;15.50;55.80
336;DHT22;156;48.738;9.228;2022-09-09T00:59:58;15.50;58.40
336;DHT22;156;48.738;9.228;2022-09-09T01:02:31;15.40;63.30
336;DHT22;156;48.738;9.228;2022-09-09T01:05:02;15.40;65.00
336;DHT22;156;48.738;9.228;2022-09-09T01:07:32;15.40;65.50
336;DHT22;156;48.738;9.228;2022-09-09T01:10:07;15.40;66.90
336;DHT22;156;48.738;9.228;2022-09-09T01:12:40;15.30;66.60
336;DHT22;156;48.738;9.228;2022-09-09T01:15:11;15.40;63.90
336;DHT22;156;48.738;9.228;2022-09-09T01:17:50;15.40;58.60
336;DHT22;156;48.738;9.228;2022-09-09T01:20:23;15.40;55.20
336;DHT22;156;48.738;9.228;2022-09-09T01:23:11;15.50;53.90
336;DHT22;156;48.738;9.228;2022-09-09T01:26:19;15.50;50.10
336;DHT22;156;48.738;9.228;2022-09-09T01:28:49;15.50;50.50
336;DHT22;156;48.738;9.228;2022-09-09T01:31:20;15.50;52.80
336;DHT22;156;48.738;9.228;2022-09-09T01:33:48;15.30;50.50
336;DHT22;156;48.738;9.228;2022-09-09T01:36:26;15.30;48.70
336;DHT22;156;48.738;9.228;2022-09-09T01:38:54;15.30;47.50
336;DHT22;156;48.738;9.228;2022-09-09T01:41:23;15.30;48.50
336;DHT22;156;48.738;9.228;2022-09-09T01:43:50;15.40;45.50
336;DHT22;156;48.738;9.228;2022-09-09T01:46:18;15.40;44.50
336;DHT22;156;48.738;9.228;2022-09-09T01:48:48;15.40;44.20
336;DHT22;156;48.738;9.228;2022-09-09T01:51:15;15.40;42.00
336;DHT22;156;48.738;9.228;2022-09-09T01:53:43;15.40;42.70
336;DHT22;156;48.738;9.228;2022-09-09T01:56:18;15.50;38.60
336;DHT22;156;48.738;9.228;2022-09-09T01:58:57;15.50;38.30
336;DHT22;156;48.738;9.228;2022-09-09T02:01:37;15.40;39.00
336;DHT22;156;48.738;9.228;2022-09-09T02:04:12;15.50;38.90
336;DHT22;156;48.738;9.228;2022-09-09T02:06:46;15.60;36.00
336;DHT22;156;48.738;9.228;2022-09-09T02:09:19;15.50;34.80
336;DHT22;156;48.738;9.228;2022-09-09T02:11:52;15.40;39.70
336;DHT22;156;48.738;9.228;2022-09-09T02:14:26;15.30;43.70
336;DHT22;156;48.738;9.228;2022-09-09T02:16:56;15.30;43.50
336;DHT22;156;48.738;9.228;2022-09-09T02:19:26;15.30;44.70
336;DHT22;156;48.738;9.228;2022-09-09T02:21:55;15.20;47.30
336;DHT22;156;48.738;9.228;2022-09-09T02:24:23;15.20;49.00
336;DHT22;156;48.738;9.228;2022-09-09T02:26:53;15.10;50.60
336;DHT22;156;48.738;9.228;2022-09-09T02:29:25;15.00;52.40
336;DHT22;156;48.738;9.228;2022-09-09T02:31:55;15.00;53.20
336;DHT22;156;48.738;9.228;2022-09-09T02:34:23;15.00;54.30
336;DHT22;156;48.738;9.228;2022-09-09T02:36:53;15.00;54.40
336;DHT22;156;48.738;9.228;2022-09-09T02:39:21;15.00;54.60
336;DHT22;156;48.738;9.228;2022-09-09T02:41:48;15.00;56.50
336;DHT22;156;48.738;9.228;2022-09-09T02:44:16;15.00;58.00
336;DHT22;156;48.738;9.228;2022-09-09T02:47:04;14.90;58.20
336;DHT22;156;48.738;9.228;2022-09-09T02:49:43;14.90;59.30
336;DHT22;156;48.738;9.228;2022-09-09T02:52:18;14.80;60.60
336;DHT22;156;48.738;9.228;2022-09-09T02:54:49;14.80;60.90
336;DHT22;156;48.738;9.228;2022-09-09T02:57:21;14.80;62.20
336;DHT22;156;48.738;9.228;2022-09-09T02:59:50;14.80;62.20
336;DHT22;156;48.738;9.228;2022-09-09T03:02:19;14.80;61.50
336;DHT22;156;48.738;9.228;2022-09-09T03:04:46;14.90;60.60
336;DHT22;156;48.738;9.228;2022-09-09T03:07:16;14.90;62.10
336;DHT22;156;48.738;9.228;2022-09-09T03:09:43;15.00;57.90
336;DHT22;156;48.738;9.228;2022-09-09T03:12:11;15.00;56.80
336;DHT22;156;48.738;9.228;2022-09-09T03:14:38;15.00;57.80
336;DHT22;156;48.738;9.228;2022-09-09T03:17:06;15.00;58.00
336;DHT22;156;48.738;9.228;2022-09-09T03:19:36;15.00;58.50
336;DHT22;156;48.738;9.228;2022-09-09T03:22:03;15.00;58.00
336;DHT22;156;48.738;9.228;2022-09-09T03:24:30;15.00;57.80
336;DHT22;156;48.738;9.228;2022-09-09T03:26:57;15.00;57.40
336;DHT22;156;48.738;9.228;2022-09-09T03:29:24;15.00;58.10
336;DHT22;156;48.738;9.228;2022-09-09T03:31:51;15.00;59.60
336;DHT22;156;48.738;9.228;2022-09-09T03:34:18;14.90;61.40
336;DHT22;156;48.738;9.228;2022-09-09T03:36:47;14.90;62.70
336;DHT22;156;48.738;9.228;2022-09-09T03:39:15;14.80;65.00
336;DHT22;156;48.738;9.228;2022-09-09T03:41:42;14.80;66.70
336;DHT22;156;48.738;9.228;2022-09-09T03:44:13;14.80;67.60
336;DHT22;156;48.738;9.228;2022-09-09T03:46:40;14.80;69.00
336;DHT22;156;48.738;9.228;2022-09-09T03:49:07;14.70;70.70
336;DHT22;156;48.738;9.228;2022-09-09T03:51:35;14.70;72.30
336;DHT22;156;48.738;9.228;2022-09-09T03:54:05;14.70;73.70
336;DHT22;156;48.738;9.228;2022-09-09T03:56:34;14.70;75.40
336;DHT22;156;48.738;9.228;2022-09-09T03:59:01;14.70;76.90
336;DHT22;156;48.738;9.228;2022-09-09T04:01:28;14.60;79.60
336;DHT22;156;48.738;9.228;2022-09-09T04:03:55;14.60;81.90
336;DHT22;156;48.738;9.228;2022-09-09T04:06:24;14.60;84.20
336;DHT22;156;48.738;9.228;2022-09-09T04:08:51;14.50;88.30
336;DHT22;156;48.738;9.228;2022-09-09T04:11:20;14.40;90.50
336;DHT22;156;48.738;9.228;2022-09-09T04:13:47;14.30;91.80
336;DHT22;156;48.738;9.228;2022-09-09T04:16:14;14.30;92.50
336;DHT22;156;48.738;9.228;2022-09-09T04:18:42;14.20;93.00
336;DHT22;156;48.738;9.228;2022-09-09T04:21:09;14.10;93.50
336;DHT22;156;48.738;9.228;2022-09-09T04:23:38;14.10;94.20
336;DHT22;156;48.738;9.228;2022-09-09T04:26:05;14.10;94.50
336;DHT22;156;48.738;9.228;2022-09-09T04:28:35;14.10;94.90
336;DHT22;156;48.738;9.228;2022-09-09T04:31:06;14.10;94.90
336;DHT22;156;48.738;9.228;2022-09-09T04:33:35;14.10;95.30
336;DHT22;156;48.738;9.228;2022-09-09T04:36:02;14.20;95.40
336;DHT22;156;48.738;9.228;2022-09-09T04:38:29;14.20;95.40
336;DHT22;156;48.738;9.228;2022-09-09T04:40:56;14.20;95.10
336;DHT22;156;48.738;9.228;2022-09-09T04:43:23;14.10;96.60
336;DHT22;156;48.738;9.228;2022-09-09T04:45:54;14.10;97.40
336;DHT22;156;48.738;9.228;2022-09-09T04:48:21;14.10;97.20
336;DHT22;156;48.738;9.228;2022-09-09T04:50:55;14.20;96.50
336;DHT22;156;48.738;9.228;2022-09-09T04:53:22;14.20;96.30
336;DHT22;156;48.738;9.228;2022-09-09T04:55:51;14.10;96.70
336;DHT22;156;48.738;9.228;2022-09-09T04:58:17;14.00;97.90
336;DHT22;156;48.738;9.228;2022-09-09T05:00:47;14.00;97.50
336;DHT22;156;48.738;9.228;2022-09-09T05:03:15;14.10;95.50
336;DHT22;156;48.738;9.228;2022-09-09T05:05:42;14.10;95.50
336;DHT22;156;48.738;9.228;2022-09-09T05:08:10;14.10;94.90
336;DHT22;156;48.738;9.228;2022-09-09T05:10:38;14.10;95.70
336;DHT22;156;48.738;9.228;2022-09-09T05:13:07;14.10;95.30
336;DHT22;156;48.738;9.228;2022-09-09T05:15:34;14.10;94.90
336;DHT22;156;48.738;9.228;2022-09-09T05:18:02;14.10;95.00
336;DHT22;156;48.738;9.228;2022-09-09T05:20:30;14.10;95.50
336;DHT22;156;48.738;9.228;2022-09-09T05:22:57;14.20;94.70
336;DHT22;156;48.738;9.228;2022-09-09T05:25:24;14.20;94.20
336;DHT22;156;48.738;9.228;2022-09-09T05:27:52;14.30;94.40
336;DHT22;156;48.738;9.228;2022-09-09T05:30:20;14.40;93.30
336;DHT22;156;48.738;9.228;2022-09-09T05:32:48;14.40;93.50
336;DHT22;156;48.738;9.228;2022-09-09T05:35:15;14.50;92.00
336;DHT22;156;48.738;9.228;2022-09-09T05:37:45;14.60;91.00
336;DHT22;156;48.738;9.228;2022-09-09T05:40:13;14.60;90.70
336;DHT22;156;48.738;9.228;2022-09-09T05:42:40;14.60;90.40
336;DHT22;156;48.738;9.228;2022-09-09T05:45:08;14.70;87.20
336;DHT22;156;48.738;9.228;2022-09-09T05:47:35;14.70;88.40
336;DHT22;156;48.738;9.228;2022-09-09T05:50:03;14.70;89.60
336;DHT22;156;48.738;9.228;2022-09-09T05:52:30;14.80;89.90
336;DHT22;156;48.738;9.228;2022-09-09T05:54:59;14.90;90.00
336;DHT22;156;48.738;9.228;2022-09-09T05:57:26;15.00;86.80
336;DHT22;156;48.738;9.228;2022-09-09T05:59:52;15.00;84.70
336;DHT22;156;48.738;9.228;2022-09-09T06:02:20;15.00;87.00
336;DHT22;156;48.738;9.228;2022-09-09T06:04:46;14.90;88.80
336;DHT22;156;48.738;9.228;2022-09-09T06:07:13;15.00;88.60
336;DHT22;156;48.738;9.228;2022-09-09T06:09:41;15.00;90.40
336;DHT22;156;48.738;9.228;2022-09-09T06:12:09;15.00;90.70
336;DHT22;156;48.738;9.228;2022-09-09T06:14:36;15.00;91.30
336;DHT22;156;48.738;9.228;2022-09-09T06:17:03;15.00;91.40
336;DHT22;156;48.738;9.228;2022-09-09T06:19:30;15.10;90.50
336;DHT22;156;48.738;9.228;2022-09-09T06:21:57;15.20;90.90
336;DHT22;156;48.738;9.228;2022-09-09T06:24:24;15.00;91.90
336;DHT22;156;48.738;9.228;2022-09-09T06:26:51;15.10;91.90
336;DHT22;156;48.738;9.228;2022-09-09T06:29:20;15.10;93.20
336;DHT22;156;48.738;9.228;2022-09-09T06:31:47;15.20;93.10
336;DHT22;156;48.738;9.228;2022-09-09T06:34:14;15.30;92.30
336;DHT22;156;48.738;9.228;2022-09-09T06:36:41;15.30;91.60
336;DHT22;156;48.738;9.228;2022-09-09T06:39:08;15.30;92.40
336;DHT22;156;48.738;9.228;2022-09-09T06:41:36;15.40;92.00
336;DHT22;156;48.738;9.228;2022-09-09T06:44:03;15.40;91.70
336;DHT22;156;48.738;9.228;2022-09-09T06:46:32;15.40;90.90
336;DHT22;156;48.738;9.228;2022-09-09T06:49:01;15.50;90.90
336;DHT22;156;48.738;9.228;2022-09-09T06:51:29;15.40;91.60
336;DHT22;156;48.738;9.228;2022-09-09T06:53:58;15.50;90.90
336;DHT22;156;48.738;9.228;2022-09-09T06:56:26;15.70;90.80
336;DHT22;156;48.738;9.228;2022-09-09T06:58:54;15.70;90.00
336;DHT22;156;48.738;9.228;2022-09-09T07:01:23;15.80;87.60
336;DHT22;156;48.738;9.228;2022-09-09T07:03:52;15.80;88.80
336;DHT22;156;48.738;9.228;2022-09-09T07:06:21;15.80;85.20
336;DHT22;156;48.738;9.228;2022-09-09T07:08:49;15.90;89.40
336;DHT22;156;48.738;9.228;2022-09-09T07:11:17;16.00;83.20
336;DHT22;156;48.738;9.228;2022-09-09T07:13:44;16.10;81.50
336;DHT22;156;48.738;9.228;2022-09-09T07:16:13;16.10;83.40
336;DHT22;156;48.738;9.228;2022-09-09T07:18:40;16.10;82.90
336;DHT22;156;48.738;9.228;2022-09-09T07:21:10;16.30;80.40
336;DHT22;156;48.738;9.228;2022-09-09T07:23:37;16.30;81.20
336;DHT22;156;48.738;9.228;2022-09-09T07:26:08;16.50;79.90
336;DHT22;156;48.738;9.228;2022-09-09T07:28:36;16.60;77.30
336;DHT22;156;48.738;9.228;2022-09-09T07:31:05;16.70;76.10
336;DHT22;156;48.738;9.228;2022-09-09T07:33:36;16.70;75.60
336;DHT22;156;48.738;9.228;2022-09-09T07:36:05;16.70;73.10
336;DHT22;156;48.738;9.228;2022-09-09T07:38:37;16.80;73.60
336;DHT22;156;48.738;9.228;2022-09-09T07:41:06;16.60;69.30
336;DHT22;156;48.738;9.228;2022-09-09T07:43:34;16.60;73.50
336;DHT22;156;48.738;9.228;2022-09-09T07:46:01;16.80;75.70
336;DHT22;156;48.738;9.228;2022-09-09T07:48:29;16.80;65.00
336;DHT22;156;48.738;9.228;2022-09-09T07:51:07;17.00;64.40
336;DHT22;156;48.738;9.228;2022-09-09T07:53:36;17.20;63.50
336;DHT22;156;48.738;9.228;2022-09-09T07:56:05;17.20;61.20
336;DHT22;156;48.738;9.228;2022-09-09T07:58:33;17.00;59.50
336;DHT22;156;48.738;9.228;2022-09-09T08:01:00;17.10;66.10
336;DHT22;156;48.738;9.228;2022-09-09T08:03:26;17.30;65.40
336;DHT22;156;48.738;9.228;2022-09-09T08:06:00;17.40;59.60
336;DHT22;156;48.738;9.228;2022-09-09T08:08:28;17.50;55.00
336;DHT22;156;48.738;9.228;2022-09-09T08:11:03;17.50;55.10
336;DHT22;156;48.738;9.228;2022-09-09T08:13:33;17.50;50.60
336;DHT22;156;48.738;9.228;2022-09-09T08:16:07;17.60;53.70
336;DHT22;156;48.738;9.228;2022-09-09T08:18:35;17.50;50.40
336;DHT22;156;48.738;9.228;2022-09-09T08:21:07;17.40;56.00
336;DHT22;156;48.738;9.228;2022-09-09T08:23:37;17.60;51.90
336;DHT22;156;48.738;9.228;2022-09-09T08:26:09;17.60;53.90
336;DHT22;156;48.738;9.228;2022-09-09T08:28:36;17.50;50.60
336;DHT22;156;48.738;9.228;2022-09-09T08:31:12;17.70;56.50
336;DHT22;156;48.738;9.228;2022-09-09T08:33:39;17.80;50.90
336;DHT22;156;48.738;9.228;2022-09-09T08:36:09;17.90;41.50
336;DHT22;156;48.738;9.228;2022-09-09T08:38:36;18.00;42.70
336;DHT22;156;48.738;9.228;2022-09-09T08:41:32;18.10;35.70
336;DHT22;156;48.738;9.228;2022-09-09T08:44:06;18.20;38.60
336;DHT22;156;48.738;9.228;2022-09-09T08:46:42;18.40;32.60
336;DHT22;156;48.738;9.228;2022-09-09T08:49:19;18.40;28.70
336;DHT22;156;48.738;9.228;2022-09-09T08:51:53;18.60;25.90
336;DHT22;156;48.738;9.228;2022-09-09T08:54:22;18.60;21.40
336;DHT22;156;48.738;9.228;2022-09-09T08:56:50;18.50;17.30
336;DHT22;156;48.738;9.228;2022-09-09T08:59:17;18.40;17.10
336;DHT22;156;48.738;9.228;2022-09-09T09:02:00;18.50;11.70
336;DHT22;156;48.738;9.228;2022-09-09T09:04:37;18.70;12.30
336;DHT22;156;48.738;9.228;2022-09-09T09:07:16;18.70;6.40
336;DHT22;156;48.738;9.228;2022-09-09T09:09:53;18.90;6.10
336;DHT22;156;48.738;9.228;2022-09-09T09:12:27;19.00;3.40
336;DHT22;156;48.738;9.228;2022-09-09T09:14:55;19.30;1.00
336;DHT22;156;48.738;9.228;2022-09-09T09:17:25;19.40;1.00
336;DHT22;156;48.738;9.228;2022-09-09T09:19:53;19.30;1.00
336;DHT22;156;48.738;9.228;2022-09-09T09:22:21;19.50;1.00
336;DHT22;156;48.738;9.228;2022-09-09T09:24:53;19.40;1.00
336;DHT22;156;48.738;9.228;2022-09-09T09:27:30;19.60;1.00
336;DHT22;156;48.738;9.228;2022-09-09T09:29:59;19.70;1.00
336;DHT22;156;48.738;9.228;2022-09-09T09:32:30;19.30;1.00
336;DHT22;156;48.738;9.228;2022-09-09T09:34:58;18.20;1.00
336;DHT22;156;48.738;9.228;2022-09-09T09:37:32;17.10;1.00
336;DHT22;156;48.738;9.228;2022-09-09T09:40:08;16.90;16.10
336;DHT22;156;48.738;9.228;2022-09-09T09:42:37;16.50;11.20
336;DHT22;156;48.738;9.228;2022-09-09T09:45:08;16.30;4.30
336;DHT22;156;48.738;9.228;2022-09-09T09:47:41;16.40;26.10
336;DHT22;156;48.738;9.228;2022-09-09T09:50:16;16.50;30.60
336;DHT22;156;48.738;9.228;2022-09-09T09:52:53;16.50;40.10
336;DHT22;156;48.738;9.228;2022-09-09T09:55:21;16.60;37.50
336;DHT22;156;48.738;9.228;2022-09-09T09:57:51;16.80;46.70
336;DHT22;156;48.738;9.228;2022-09-09T10:00:19;17.00;59.20
336;DHT22;156;48.738;9.228;2022-09-09T10:02:48;17.10;64.50
336;DHT22;156;48.738;9.228;2022-09-09T10:05:18;17.30;54.60
336;DHT22;156;48.738;9.228;2022-09-09T10:07:46;17.50;43.60
336;DHT22;156;48.738;9.228;2022-09-09T10:10:17;17.50;46.00
336;DHT22;156;48.738;9.228;2022-09-09T10:12:55;17.80;63.70
336;DHT22;156;48.738;9.228;2022-09-09T10:15:34;18.00;61.10
336;DHT22;156;48.738;9.228;2022-09-09T10:18:15;18.00;39.50
336;DHT22;156;48.738;9.228;2022-09-09T10:20:52;18.10;39.60
336;DHT22;156;48.738;9.228;2022-09-09T10:23:29;18.10;44.60
336;DHT22;156;48.738;9.228;2022-09-09T10:26:18;18.40;47.30
336;DHT22;156;48.738;9.228;2022-09-09T10:29:02;18.50;28.50
336;DHT22;156;48.738;9.228;2022-09-09T10:31:37;18.70;16.20
336;DHT22;156;48.738;9.228;2022-09-09T10:34:19;18.90;27.80
336;DHT22;156;48.738;9.228;2022-09-09T10:36:51;19.20;18.30
336;DHT22;156;48.738;9.228;2022-09-09T10:39:32;19.40;4.30
336;DHT22;156;48.738;9.228;2022-09-09T10:42:04;19.70;1.00
336;DHT22;156;48.738;9.228;2022-09-09T10:44:44;19.90;1.00
336;DHT22;156;48.738;9.228;2022-09-09T10:50:16;20.40;1.00
336;DHT22;156;48.738;9.228;2022-09-09T10:52:50;20.40;1.00
336;DHT22;156;48.738;9.228;2022-09-09T10:55:19;20.80;1.00
336;DHT22;156;48.738;9.228;2022-09-09T10:57:47;21.10;1.00
336;DHT22;156;48.738;9.228;2022-09-09T11:00:18;21.30;1.00
336;DHT22;156;48.738;9.228;2022-09-09T11:02:49;21.50;1.00
336;DHT22;156;48.738;9.228;2022-09-09T11:05:20;21.60;1.00
336;DHT22;156;48.738;9.228;2022-09-09T11:07:50;21.60;1.00
336;DHT22;156;48.738;9.228;2022-09-09T11:10:26;21.20;1.00
336;DHT22;156;48.738;9.228;2022-09-09T11:12:59;21.00;1.00
336;DHT22;156;48.738;9.228;2022-09-09T11:15:35;21.00;1.00
336;DHT22;156;48.738;9.228;2022-09-09T11:18:04;20.80;1.00
336;DHT22;156;48.738;9.228;2022-09-09T11:20:33;20.60;1.00
336;DHT22;156;48.738;9.228;2022-09-09T11:23:04;20.80;1.00
336;DHT22;156;48.738;9.228;2022-09-09T11:25:34;20.70;1.00
336;DHT22;156;48.738;9.228;2022-09-09T11:28:29;20.40;1.00
336;DHT22;156;48.738;9.228;2022-09-09T11:31:13;20.40;1.00
336;DHT22;156;48.738;9.228;2022-09-09T11:34:12;20.20;1.00
336;DHT22;156;48.738;9.228;2022-09-09T11:37:00;19.70;1.00
336;DHT22;156;48.738;9.228;2022-09-09T11:39:47;19.20;1.00
336;DHT22;156;48.738;9.228;2022-09-09T11:42:21;18.90;1.00
336;DHT22;156;48.738;9.228;2022-09-09T11:44:49;18.60;1.00
336;DHT22;156;48.738;9.228;2022-09-09T11:47:22;18.30;1.00
336;DHT22;156;48.738;9.228;2022-09-09T11:49:50;18.30;1.00
336;DHT22;156;48.738;9.228;2022-09-09T11:52:35;18.30;1.00
336;DHT22;156;48.738;9.228;2022-09-09T11:55:09;18.40;1.00
336;DHT22;156;48.738;9.228;2022-09-09T11:57:37;18.60;1.00
336;DHT22;156;48.738;9.228;2022-09-09T12:00:06;18.80;1.00
336;DHT22;156;48.738;9.228;2022-09-09T12:02:34;18.80;1.00
336;DHT22;156;48.738;9.228;2022-09-09T12:05:05;18.80;1.00
336;DHT22;156;48.738;9.228;2022-09-09T12:07:36;18.80;1.00
336;DHT22;156;48.738;9.228;2022-09-09T12:10:20;18.90;1.00
336;DHT22;156;48.738;9.228;2022-09-09T12:12:48;19.00;1.00
336;DHT22;156;48.738;9.228;2022-09-09T12:15:24;18.90;1.00
336;DHT22;156;48.738;9.228;2022-09-09T12:17:56;18.70;1.00
336;DHT22;156;48.738;9.228;2022-09-09T12:20:30;18.70;1.00
336;DHT22;156;48.738;9.228;2022-09-09T12:23:18;18.60;1.00
336;DHT22;156;48.738;9.228;2022-09-09T12:26:01;18.70;1.00
336;DHT22;156;48.738;9.228;2022-09-09T12:28:42;18.70;1.00
336;DHT22;156;48.738;9.228;2022-09-09T12:31:16;19.20;1.00
336;DHT22;156;48.738;9.228;2022-09-09T12:33:46;19.60;1.00
336;DHT22;156;48.738;9.228;2022-09-09T12:36:15;19.90;1.00
336;DHT22;156;48.738;9.228;2022-09-09T12:38:43;20.00;1.00
336;DHT22;156;48.738;9.228;2022-09-09T12:41:19;20.10;1.00
336;DHT22;156;48.738;9.228;2022-09-09T12:43:46;20.10;1.00
336;DHT22;156;48.738;9.228;2022-09-09T12:46:21;20.40;1.00
336;DHT22;156;48.738;9.228;2022-09-09T12:48:50;20.60;1.00
336;DHT22;156;48.738;9.228;2022-09-09T12:51:21;20.50;1.00
336;DHT22;156;48.738;9.228;2022-09-09T12:53:51;20.20;1.00
336;DHT22;156;48.738;9.228;2022-09-09T12:56:20;20.20;1.00
336;DHT22;156;48.738;9.228;2022-09-09T12:58:50;20.30;1.00
336;DHT22;156;48.738;9.228;2022-09-09T13:01:21;20.40;1.00
336;DHT22;156;48.738;9.228;2022-09-09T13:03:50;20.60;1.00
336;DHT22;156;48.738;9.228;2022-09-09T13:06:21;20.60;1.00
336;DHT22;156;48.738;9.228;2022-09-09T13:08:48;20.50;1.00
336;DHT22;156;48.738;9.228;2022-09-09T13:11:18;20.00;1.00
336;DHT22;156;48.738;9.228;2022-09-09T13:13:51;20.00;1.00
336;DHT22;156;48.738;9.228;2022-09-09T13:16:20;19.90;1.00
336;DHT22;156;48.738;9.228;2022-09-09T13:18:50;19.90;1.00
336;DHT22;156;48.738;9.228;2022-09-09T13:21:17;20.10;1.00
336;DHT22;156;48.738;9.228;2022-09-09T13:23:49;20.30;1.00
336;DHT22;156;48.738;9.228;2022-09-09T13:26:22;20.30;1.00
336;DHT22;156;48.738;9.228;2022-09-09T13:28:50;20.50;1.00
336;DHT22;156;48.738;9.228;2022-09-09T13:31:22;21.00;1.00
336;DHT22;156;48.738;9.228;2022-09-09T13:33:51;21.60;1.00
336;DHT22;156;48.738;9.228;2022-09-09T13:36:28;22.30;1.00
336;DHT22;156;48.738;9.228;2022-09-09T13:38:57;22.30;1.00
336;DHT22;156;48.738;9.228;2022-09-09T13:41:29;22.10;1.00
336;DHT22;156;48.738;9.228;2022-09-09T13:43:57;22.70;1.00
336;DHT22;156;48.738;9.228;2022-09-09T13:46:32;23.20;1.00
336;DHT22;156;48.738;9.228;2022-09-09T13:49:02;23.30;1.00
336;DHT22;156;48.738;9.228;2022-09-09T13:51:34;22.60;1.00
336;DHT22;156;48.738;9.228;2022-09-09T13:54:03;21.50;1.00
336;DHT22;156;48.738;9.228;2022-09-09T13:56:31;21.70;1.00
336;DHT22;156;48.738;9.228;2022-09-09T13:58:58;22.40;1.00
336;DHT22;156;48.738;9.228;2022-09-09T14:01:26;22.90;1.00
336;DHT22;156;48.738;9.228;2022-09-09T14:03:54;23.40;1.00
336;DHT22;156;48.738;9.228;2022-09-09T14:06:22;23.00;1.00
336;DHT22;156;48.738;9.228;2022-09-09T14:08:50;23.00;1.00
336;DHT22;156;48.738;9.228;2022-09-09T14:11:17;23.30;1.00
336;DHT22;156;48.738;9.228;2022-09-09T14:13:44;23.70;1.00
336;DHT22;156;48.738;9.228;2022-09-09T14:16:12;24.00;1.00
336;DHT22;156;48.738;9.228;2022-09-09T14:18:39;23.80;1.00
336;DHT22;156;48.738;9.228;2022-09-09T14:21:06;23.80;1.00
336;DHT22;156;48.738;9.228;2022-09-09T14:23:36;24.20;1.00
336;DHT22;156;48.738;9.228;2022-09-09T14:26:04;23.50;1.00
336;DHT22;156;48.738;9.228;2022-09-09T14:28:31;22.80;1.00
336;DHT22;156;48.738;9.228;2022-09-09T14:30:59;22.90;1.00
336;DHT22;156;48.738;9.228;2022-09-09T14:33:27;22.90;1.00
336;DHT22;156;48.738;9.228;2022-09-09T14:35:56;22.20;1.00
336;DHT22;156;48.738;9.228;2022-09-09T14:38:23;22.60;1.00
336;DHT22;156;48.738;9.228;2022-09-09T14:40:51;23.20;1.00
336;DHT22;156;48.738;9.228;2022-09-09T14:43:18;23.30;1.00
336;DHT22;156;48.738;9.228;2022-09-09T14:45:45;23.50;1.00
336;DHT22;156;48.738;9.228;2022-09-09T14:48:13;23.00;1.00
336;DHT22;156;48.738;9.228;2022-09-09T14:50:40;23.00;1.00
336;DHT22;156;48.738;9.228;2022-09-09T14:53:07;22.60;1.00
336;DHT22;156;48.738;9.228;2022-09-09T14:55:35;22.60;1.00
336;DHT22;156;48.738;9.228;2022-09-09T14:58:04;22.80;1.00
336;DHT22;156;48.738;9.228;2022-09-09T15:00:31;23.30;1.00
336;DHT22;156;48.738;9.228;2022-09-09T15:02:58;23.10;1.00
336;DHT22;156;48.738;9.228;2022-09-09T15:05:25;23.30;1.00
336;DHT22;156;48.738;9.228;2022-09-09T15:07:53;23.40;1.00
336;DHT22;156;48.738;9.228;2022-09-09T15:10:20;23.00;1.00
336;DHT22;156;48.738;9.228;2022-09-09T15:12:47;23.70;1.00
336;DHT22;156;48.738;9.228;2022-09-09T15:15:16;23.50;1.00
336;DHT22;156;48.738;9.228;2022-09-09T15:17:42;22.90;1.00
336;DHT22;156;48.738;9.228;2022-09-09T15:20:10;22.70;1.00
336;DHT22;156;48.738;9.228;2022-09-09T15:22:36;23.00;1.00
336;DHT22;156;48.738;9.228;2022-09-09T15:25:04;23.60;1.00
336;DHT22;156;48.738;9.228;2022-09-09T15:27:33;23.20;1.00
336;DHT22;156;48.738;9.228;2022-09-09T15:30:00;23.00;1.00
336;DHT22;156;48.738;9.228;2022-09-09T15:32:29;22.70;1.00
336;DHT22;156;48.738;9.228;2022-09-09T15:34:55;22.50;1.00
336;DHT22;156;48.738;9.228;2022-09-09T15:37:22;22.40;1.00
336;DHT22;156;48.738;9.228;2022-09-09T15:39:49;22.50;1.00
336;DHT22;156;48.738;9.228;2022-09-09T15:42:16;22.40;1.00
336;DHT22;156;48.738;9.228;2022-09-09T15:44:43;22.70;1.00
336;DHT22;156;48.738;9.228;2022-09-09T15:47:11;22.40;1.00
336;DHT22;156;48.738;9.228;2022-09-09T15:49:40;22.10;1.00
336;DHT22;156;48.738;9.228;2022-09-09T15:52:10;22.10;1.00
336;DHT22;156;48.738;9.228;2022-09-09T15:54:37;21.10;1.00
336;DHT22;156;48.738;9.228;2022-09-09T15:57:07;20.70;1.00
336;DHT22;156;48.738;9.228;2022-09-09T15:59:34;20.70;1.00
336;DHT22;156;48.738;9.228;2022-09-09T16:02:01;20.70;1.00
336;DHT22;156;48.738;9.228;2022-09-09T16:04:28;20.60;1.00
336;DHT22;156;48.738;9.228;2022-09-09T16:06:58;20.50;1.00
336;DHT22;156;48.738;9.228;2022-09-09T16:09:26;20.10;1.00
336;DHT22;156;48.738;9.228;2022-09-09T16:11:56;20.00;1.00
336;DHT22;156;48.738;9.228;2022-09-09T16:14:23;20.00;1.00
336;DHT22;156;48.738;9.228;2022-09-09T16:16:51;19.90;1.00
336;DHT22;156;48.738;9.228;2022-09-09T16:19:18;19.90;1.00
336;DHT22;156;48.738;9.228;2022-09-09T16:21:47;19.90;1.00
336;DHT22;156;48.738;9.228;2022-09-09T16:24:17;19.90;1.00
336;DHT22;156;48.738;9.228;2022-09-09T16:26:47;19.90;1.00
336;DHT22;156;48.738;9.228;2022-09-09T16:29:15;19.80;1.00
336;DHT22;156;48.738;9.228;2022-09-09T16:31:43;19.80;1.00
336;DHT22;156;48.738;9.228;2022-09-09T16:34:10;19.90;1.00
336;DHT22;156;48.738;9.228;2022-09-09T16:36:39;19.80;1.00
336;DHT22;156;48.738;9.228;2022-09-09T16:39:07;19.70;1.00
336;DHT22;156;48.738;9.228;2022-09-09T16:41:37;19.70;1.00
336;DHT22;156;48.738;9.228;2022-09-09T16:44:08;19.70;1.00
336;DHT22;156;48.738;9.228;2022-09-09T16:46:37;19.70;1.00
336;DHT22;156;48.738;9.228;2022-09-09T16:49:06;19.50;1.00
336;DHT22;156;48.738;9.228;2022-09-09T16:51:36;19.40;1.00
336;DHT22;156;48.738;9.228;2022-09-09T16:54:04;19.10;1.00
336;DHT22;156;48.738;9.228;2022-09-09T16:56:34;18.80;1.00
336;DHT22;156;48.738;9.228;2022-09-09T16:59:06;18.80;1.00
336;DHT22;156;48.738;9.228;2022-09-09T17:01:36;18.70;1.00
336;DHT22;156;48.738;9.228;2022-09-09T17:04:05;18.60;1.00
336;DHT22;156;48.738;9.228;2022-09-09T17:06:33;18.40;1.00